createdAt,value
2017-09-22T00:01:52.719Z,7.70
2017-09-22T00:04:20.976Z,7.70
2017-09-22T00:06:49.265Z,7.70
2017-09-22T00:09:18.316Z,7.60
2017-09-22T00:11:46.584Z,7.60
2017-09-22T00:14:14.887Z,7.70
2017-09-22T00:16:43.950Z,7.70
2017-09-22T00:19:12.252Z,7.60
2017-09-22T00:21:41.285Z,7.60
2017-09-22T00:24:09.551Z,7.50
2017-09-22T00:26:37.828Z,7.50
2017-09-22T00:29:06.100Z,7.50
2017-09-22T00:31:34.383Z,7.40
2017-09-22T00:34:02.648Z,7.40
2017-09-22T00:36:31.100Z,7.40
2017-09-22T00:38:59.353Z,7.40
2017-09-22T00:41:28.387Z,7.30
2017-09-22T00:43:56.665Z,7.30
2017-09-22T00:46:24.928Z,7.30
2017-09-22T00:48:53.217Z,7.30
2017-09-22T00:51:22.244Z,7.20
2017-09-22T00:53:50.550Z,7.20
2017-09-22T00:56:19.588Z,7.20
2017-09-22T00:58:47.855Z,7.10
2017-09-22T01:01:16.124Z,7.20
2017-09-22T01:03:44.407Z,7.20
2017-09-22T01:06:12.670Z,7.20
2017-09-22T01:08:40.935Z,7.10
2017-09-22T01:11:10.109Z,7.10
2017-09-22T01:13:39.152Z,7.10
2017-09-22T01:16:07.414Z,7.10
2017-09-22T01:18:35.690Z,7.20
2017-09-22T01:21:03.948Z,7.20
2017-09-22T01:23:32.226Z,7.20
2017-09-22T01:26:00.494Z,7.10
2017-09-22T01:28:28.813Z,7.10
2017-09-22T01:30:57.075Z,7.10
2017-09-22T01:33:25.341Z,7.10
2017-09-22T01:35:53.618Z,7.00
2017-09-22T01:38:21.886Z,7.00
2017-09-22T01:40:50.176Z,7.00
2017-09-22T01:43:19.219Z,6.90
2017-09-22T01:45:47.517Z,6.80
2017-09-22T01:48:16.577Z,6.80
2017-09-22T01:50:44.890Z,6.80
2017-09-22T01:53:13.155Z,6.80
2017-09-22T01:55:41.424Z,6.80
2017-09-22T01:58:09.708Z,6.80
2017-09-22T02:00:37.972Z,6.80
2017-09-22T02:03:06.249Z,6.80
2017-09-22T02:05:34.516Z,6.70
2017-09-22T02:08:02.788Z,6.80
2017-09-22T02:10:32.016Z,6.80
2017-09-22T02:13:00.416Z,6.70
2017-09-22T02:15:29.100Z,6.80
2017-09-22T02:17:58.129Z,6.70
2017-09-22T02:20:26.428Z,6.60
2017-09-22T02:22:54.689Z,6.70
2017-09-22T02:25:22.970Z,6.60
2017-09-22T02:27:51.996Z,6.60
2017-09-22T02:30:20.284Z,6.50
2017-09-22T02:32:48.539Z,6.50
2017-09-22T02:35:16.862Z,6.50
2017-09-22T02:37:45.132Z,6.50
2017-09-22T02:40:13.390Z,6.50
2017-09-22T02:42:41.664Z,6.50
2017-09-22T02:45:09.925Z,6.50
2017-09-22T02:47:38.201Z,6.40
2017-09-22T02:50:06.455Z,6.40
2017-09-22T02:52:34.752Z,6.40
2017-09-22T02:55:03.785Z,6.30
2017-09-22T02:57:32.056Z,6.30
2017-09-22T03:00:00.337Z,6.30
2017-09-22T03:02:28.608Z,6.40
2017-09-22T03:04:56.878Z,6.30
2017-09-22T03:07:25.909Z,6.20
2017-09-22T03:09:54.183Z,6.20
2017-09-22T03:12:22.443Z,6.20
2017-09-22T03:14:50.948Z,6.20
2017-09-22T03:17:19.978Z,6.20
2017-09-22T03:19:48.258Z,6.20
2017-09-22T03:22:16.559Z,6.20
2017-09-22T03:24:45.587Z,6.20
2017-09-22T03:27:13.872Z,6.10
2017-09-22T03:29:42.136Z,6.10
2017-09-22T03:32:10.424Z,6.10
2017-09-22T03:34:38.681Z,6.10
2017-09-22T03:37:06.971Z,6.20
2017-09-22T03:39:35.264Z,6.10
2017-09-22T03:42:03.528Z,6.10
2017-09-22T03:44:31.809Z,6.10
2017-09-22T03:47:00.841Z,6.10
2017-09-22T03:49:29.121Z,6.00
2017-09-22T03:51:57.375Z,6.00
2017-09-22T03:54:25.784Z,6.00
2017-09-22T03:56:54.814Z,5.90
2017-09-22T03:59:23.088Z,5.90
2017-09-22T04:01:51.377Z,5.90
2017-09-22T04:04:19.679Z,5.90
2017-09-22T04:06:47.955Z,5.80
2017-09-22T04:09:16.220Z,5.80
2017-09-22T04:11:44.497Z,5.70
2017-09-22T04:14:12.816Z,5.70
2017-09-22T04:16:41.855Z,5.70
2017-09-22T04:19:10.125Z,5.60
2017-09-22T04:21:38.391Z,5.70
2017-09-22T04:24:07.444Z,5.70
2017-09-22T04:26:36.128Z,5.60
2017-09-22T04:29:04.407Z,5.70
2017-09-22T04:31:33.491Z,5.70
2017-09-22T04:34:02.558Z,5.70
2017-09-22T04:36:30.807Z,5.60
2017-09-22T04:38:59.296Z,5.70
2017-09-22T04:41:28.324Z,5.70
2017-09-22T04:43:56.599Z,5.60
2017-09-22T04:46:24.879Z,5.60
2017-09-22T04:48:53.146Z,5.60
2017-09-22T04:51:21.428Z,5.60
2017-09-22T04:53:50.463Z,5.60
2017-09-22T04:56:18.744Z,5.50
2017-09-22T04:58:47.012Z,5.60
2017-09-22T05:01:15.480Z,5.60
2017-09-22T05:03:44.520Z,5.60
2017-09-22T05:06:12.776Z,5.50
2017-09-22T05:08:41.053Z,5.60
2017-09-22T05:11:09.307Z,5.60
2017-09-22T05:13:37.591Z,5.60
2017-09-22T05:16:05.861Z,5.60
2017-09-22T05:18:34.147Z,5.60
2017-09-22T05:21:02.588Z,5.60
2017-09-22T05:23:31.620Z,5.60
2017-09-22T05:25:59.892Z,5.50
2017-09-22T05:28:28.157Z,5.60
2017-09-22T05:30:56.443Z,5.60
2017-09-22T05:33:24.729Z,5.60
2017-09-22T05:35:53.783Z,5.60
2017-09-22T05:38:22.044Z,5.50
2017-09-22T05:40:50.388Z,5.60
2017-09-22T05:43:18.663Z,5.70
2017-09-22T05:45:46.940Z,6.10
2017-09-22T05:48:15.236Z,6.20
2017-09-22T05:50:43.500Z,6.20
2017-09-22T05:53:11.785Z,6.30
2017-09-22T05:55:40.043Z,6.50
2017-09-22T05:58:08.331Z,6.70
2017-09-22T06:00:36.644Z,6.80
2017-09-22T06:03:05.903Z,7.20
2017-09-22T06:05:34.179Z,7.10
2017-09-22T06:08:03.272Z,7.50
2017-09-22T06:10:32.333Z,7.60
2017-09-22T06:13:00.593Z,7.60
2017-09-22T06:15:28.870Z,7.70
2017-09-22T06:17:57.905Z,7.90
2017-09-22T06:20:26.209Z,7.80
2017-09-22T06:22:55.232Z,8.00
2017-09-22T06:25:23.502Z,7.90
2017-09-22T06:27:51.788Z,8.00
2017-09-22T06:30:20.060Z,8.10
2017-09-22T06:32:49.132Z,8.30
2017-09-22T06:35:17.592Z,8.20
2017-09-22T06:37:45.965Z,8.40
2017-09-22T06:40:14.233Z,8.40
2017-09-22T06:42:43.304Z,8.50
2017-09-22T06:45:11.600Z,8.50
2017-09-22T06:47:40.666Z,8.60
2017-09-22T06:50:09.731Z,8.80
2017-09-22T06:52:37.983Z,8.70
2017-09-22T06:55:06.252Z,8.80
2017-09-22T06:57:34.507Z,9.00
2017-09-22T07:00:02.788Z,9.00
2017-09-22T07:02:31.815Z,9.10
2017-09-22T07:05:00.114Z,9.10
2017-09-22T07:07:28.378Z,9.20
2017-09-22T07:09:57.153Z,9.30
2017-09-22T07:12:26.201Z,9.50
2017-09-22T07:14:54.468Z,9.50
2017-09-22T07:17:22.752Z,9.50
2017-09-22T07:19:51.021Z,9.50
2017-09-22T07:22:20.059Z,9.60
2017-09-22T07:24:48.327Z,9.60
2017-09-22T07:27:16.636Z,9.60
2017-09-22T07:29:45.668Z,9.60
2017-09-22T07:32:13.940Z,9.50
2017-09-22T07:34:42.216Z,9.50
2017-09-22T07:37:11.252Z,9.60
2017-09-22T07:39:39.534Z,9.50
2017-09-22T07:42:07.793Z,9.60
2017-09-22T07:44:36.079Z,9.60
2017-09-22T07:47:04.346Z,9.70
2017-09-22T07:49:33.408Z,9.70
2017-09-22T07:52:01.678Z,9.70
2017-09-22T07:54:29.943Z,9.70
2017-09-22T07:56:59.001Z,9.90
2017-09-22T07:59:28.795Z,9.80
2017-09-22T08:01:57.075Z,9.80
2017-09-22T08:04:26.323Z,9.90
2017-09-22T08:06:55.705Z,9.90
2017-09-22T08:09:24.114Z,10.00
2017-09-22T08:11:52.435Z,10.00
2017-09-22T08:14:20.701Z,10.10
2017-09-22T08:16:48.963Z,10.10
2017-09-22T08:19:17.282Z,10.10
2017-09-22T08:21:46.308Z,10.20
2017-09-22T08:24:14.613Z,10.10
2017-09-22T08:26:43.832Z,10.30
2017-09-22T08:29:12.116Z,10.20
2017-09-22T08:31:40.388Z,10.40
2017-09-22T08:34:08.684Z,10.50
2017-09-22T08:36:37.711Z,10.80
2017-09-22T08:39:06.028Z,10.70
2017-09-22T08:41:34.291Z,10.80
2017-09-22T08:44:02.568Z,10.80
2017-09-22T08:46:31.691Z,10.80
2017-09-22T08:48:59.959Z,10.80
2017-09-22T08:51:28.240Z,10.80
2017-09-22T08:53:56.513Z,10.90
2017-09-22T08:56:24.796Z,11.00
2017-09-22T08:58:53.824Z,11.00
2017-09-22T09:01:22.137Z,10.90
2017-09-22T09:03:50.412Z,11.00
2017-09-22T09:06:19.448Z,11.10
2017-09-22T09:08:47.752Z,11.10
2017-09-22T09:11:16.816Z,11.10
2017-09-22T09:13:45.085Z,11.10
2017-09-22T09:16:14.131Z,11.50
2017-09-22T09:18:42.421Z,11.40
2017-09-22T09:21:11.047Z,11.60
2017-09-22T09:23:39.657Z,11.60
2017-09-22T09:26:07.915Z,11.70
2017-09-22T09:28:36.196Z,11.80
2017-09-22T09:31:05.236Z,11.70
2017-09-22T09:33:33.514Z,11.70
2017-09-22T09:36:01.800Z,11.70
2017-09-22T09:38:30.836Z,11.80
2017-09-22T09:40:59.115Z,11.80
2017-09-22T09:43:27.392Z,11.90
2017-09-22T09:45:56.459Z,11.80
2017-09-22T09:48:24.740Z,11.80
2017-09-22T09:50:53.773Z,12.00
2017-09-22T09:53:22.066Z,11.90
2017-09-22T09:55:50.329Z,12.10
2017-09-22T09:58:19.380Z,12.20
2017-09-22T10:00:47.665Z,12.20
2017-09-22T10:03:15.959Z,12.40
2017-09-22T10:05:44.241Z,12.60
2017-09-22T10:08:12.524Z,12.70
2017-09-22T10:10:40.920Z,12.80
2017-09-22T10:13:09.388Z,12.90
2017-09-22T10:15:38.424Z,13.20
2017-09-22T10:18:06.690Z,13.10
2017-09-22T10:20:35.000Z,13.20
2017-09-22T10:23:04.036Z,13.30
2017-09-22T10:25:32.326Z,13.20
2017-09-22T10:28:01.356Z,13.30
2017-09-22T10:30:29.652Z,13.30
2017-09-22T10:32:57.935Z,13.30
2017-09-22T10:35:27.033Z,13.50
2017-09-22T10:37:55.332Z,13.50
2017-09-22T10:40:23.591Z,13.60
2017-09-22T10:42:51.896Z,13.50
2017-09-22T10:45:20.932Z,13.70
2017-09-22T10:47:49.216Z,13.70
2017-09-22T10:50:17.493Z,13.90
2017-09-22T10:52:45.775Z,14.10
2017-09-22T10:55:14.044Z,14.30
2017-09-22T10:57:42.371Z,14.40
2017-09-22T11:00:10.648Z,14.60
2017-09-22T11:02:39.689Z,15.60
2017-09-22T11:05:07.977Z,15.50
2017-09-22T11:07:37.013Z,15.70
2017-09-22T11:10:05.304Z,15.60
2017-09-22T11:12:33.568Z,16.00
2017-09-22T11:15:01.869Z,16.10
2017-09-22T11:17:30.148Z,16.30
2017-09-22T11:19:58.464Z,16.50
2017-09-22T11:22:27.504Z,16.70
2017-09-22T11:24:56.989Z,16.60
2017-09-22T11:27:25.264Z,16.50
2017-09-22T11:29:53.541Z,16.60
2017-09-22T11:32:21.835Z,16.50
2017-09-22T11:34:50.297Z,16.70
2017-09-22T11:37:18.613Z,16.90
2017-09-22T11:39:46.890Z,17.40
2017-09-22T11:42:15.219Z,17.50
2017-09-22T11:44:43.502Z,17.90
2017-09-22T11:47:11.776Z,18.30
2017-09-22T11:49:40.079Z,18.70
2017-09-22T11:52:08.357Z,19.20
2017-09-22T11:54:36.644Z,19.30
2017-09-22T11:57:04.928Z,19.30
2017-09-22T11:59:33.221Z,19.20
2017-09-22T12:02:01.484Z,19.00
2017-09-22T12:04:29.797Z,18.90
2017-09-22T12:06:58.069Z,19.00
2017-09-22T12:09:26.344Z,19.10
2017-09-22T12:11:55.411Z,19.20
2017-09-22T12:14:23.692Z,19.10
2017-09-22T12:16:53.265Z,19.40
2017-09-22T12:19:21.544Z,19.40
2017-09-22T12:21:50.616Z,19.00
2017-09-22T12:24:19.664Z,18.80
2017-09-22T12:26:47.972Z,18.80
2017-09-22T12:29:16.257Z,19.20
2017-09-22T12:31:44.524Z,19.90
2017-09-22T12:34:12.850Z,20.30
2017-09-22T12:36:41.900Z,20.50
2017-09-22T12:39:10.196Z,20.50
2017-09-22T12:41:38.470Z,20.60
2017-09-22T12:44:06.806Z,20.90
2017-09-22T12:46:35.844Z,21.10
2017-09-22T12:49:04.116Z,21.00
2017-09-22T12:51:32.411Z,21.50
2017-09-22T12:54:01.501Z,21.20
2017-09-22T12:56:29.799Z,21.10
2017-09-22T12:58:58.631Z,21.30
2017-09-22T13:01:29.954Z,22.20
2017-09-22T13:03:58.260Z,22.10
2017-09-22T13:06:26.592Z,22.40
2017-09-22T13:08:55.628Z,22.20
2017-09-22T13:11:23.904Z,22.10
2017-09-22T13:13:52.246Z,22.00
2017-09-22T13:16:20.526Z,21.90
2017-09-22T13:18:48.856Z,22.20
2017-09-22T13:21:17.163Z,22.60
2017-09-22T13:23:46.228Z,23.10
2017-09-22T13:26:14.500Z,23.10
2017-09-22T13:28:43.594Z,23.10
2017-09-22T13:31:13.484Z,22.90
2017-09-22T13:33:44.549Z,23.20
2017-09-22T13:36:13.672Z,23.20
2017-09-22T13:38:41.946Z,23.20
2017-09-22T13:41:11.920Z,23.30
2017-09-22T13:43:40.196Z,23.10
2017-09-22T13:46:08.512Z,23.00
2017-09-22T13:48:36.788Z,22.70
2017-09-22T13:51:05.108Z,22.80
2017-09-22T13:53:34.188Z,22.50
2017-09-22T13:56:03.232Z,22.50
2017-09-22T13:58:31.542Z,22.40
2017-09-22T14:01:00.571Z,22.80
2017-09-22T14:03:28.870Z,22.70
2017-09-22T14:05:58.288Z,23.40
2017-09-22T14:08:26.573Z,23.40
2017-09-22T14:10:54.844Z,23.40
2017-09-22T14:13:23.336Z,23.30
2017-09-22T14:15:52.384Z,23.20
2017-09-22T14:18:20.660Z,23.20
2017-09-22T14:20:48.984Z,23.40
2017-09-22T14:23:17.256Z,22.90
2017-09-22T14:25:45.559Z,22.80
2017-09-22T14:28:13.876Z,22.20
2017-09-22T14:30:42.200Z,21.90
2017-09-22T14:33:11.253Z,21.50
2017-09-22T14:35:39.536Z,21.50
2017-09-22T14:38:07.832Z,21.20
2017-09-22T14:40:36.112Z,20.90
2017-09-22T14:43:04.399Z,20.60
2017-09-22T14:45:32.681Z,20.40
2017-09-22T14:48:00.979Z,20.40
2017-09-22T14:50:29.267Z,20.30
2017-09-22T14:52:58.096Z,20.30
2017-09-22T14:55:27.127Z,21.00
2017-09-22T14:57:55.407Z,20.90
2017-09-22T15:00:24.825Z,22.20
2017-09-22T15:02:53.087Z,22.20
2017-09-22T15:05:22.148Z,23.30
2017-09-22T15:07:50.425Z,23.30
2017-09-22T15:10:19.548Z,23.60
2017-09-22T15:12:47.860Z,23.50
2017-09-22T15:15:17.144Z,23.60
2017-09-22T15:17:45.420Z,23.60
2017-09-22T15:20:13.779Z,23.70
2017-09-22T15:22:42.836Z,23.30
2017-09-22T15:25:11.109Z,23.30
2017-09-22T15:27:39.405Z,23.30
2017-09-22T15:30:08.438Z,23.50
2017-09-22T15:32:36.724Z,23.30
2017-09-22T15:35:05.784Z,22.30
2017-09-22T15:37:34.475Z,22.30
2017-09-22T15:40:02.888Z,22.00
2017-09-22T15:42:31.968Z,22.10
2017-09-22T15:45:00.271Z,22.10
2017-09-22T15:47:28.541Z,21.90
2017-09-22T15:49:57.712Z,21.80
2017-09-22T15:52:26.019Z,21.70
2017-09-22T15:54:55.540Z,21.50
2017-09-22T15:57:24.421Z,21.30
2017-09-22T15:59:54.526Z,21.00
2017-09-22T16:02:23.636Z,20.90
2017-09-22T16:04:55.162Z,20.60
2017-09-22T16:07:23.469Z,20.60
2017-09-22T16:09:51.812Z,20.30
2017-09-22T16:12:20.624Z,20.10
2017-09-22T16:14:48.929Z,19.90
2017-09-22T16:17:18.019Z,19.30
2017-09-22T16:19:46.327Z,19.20
2017-09-22T16:22:14.608Z,19.10
2017-09-22T16:24:42.888Z,18.90
2017-09-22T16:27:11.332Z,18.60
2017-09-22T16:29:39.608Z,18.50
2017-09-22T16:32:07.899Z,18.30
2017-09-22T16:34:36.948Z,17.90
2017-09-22T16:37:05.228Z,17.90
2017-09-22T16:39:34.288Z,17.50
2017-09-22T16:42:04.072Z,17.30
2017-09-22T16:44:32.360Z,17.30
2017-09-22T16:47:01.480Z,16.90
2017-09-22T16:49:30.738Z,16.60
2017-09-22T16:51:59.775Z,16.40
2017-09-22T16:54:28.048Z,16.30
2017-09-22T16:56:56.361Z,16.20
2017-09-22T16:59:24.636Z,16.10
2017-09-22T17:01:52.935Z,15.90
2017-09-22T17:04:21.200Z,15.80
2017-09-22T17:06:49.541Z,15.70
2017-09-22T17:09:17.829Z,15.50
2017-09-22T17:11:46.132Z,15.30
2017-09-22T17:14:14.401Z,15.20
2017-09-22T17:16:42.680Z,15.10
2017-09-22T17:19:10.965Z,15.00
2017-09-22T17:21:39.245Z,14.90
2017-09-22T17:24:08.299Z,14.90
2017-09-22T17:26:36.568Z,14.80
2017-09-22T17:29:04.876Z,14.90
2017-09-22T17:31:33.148Z,14.80
2017-09-22T17:34:01.464Z,14.70
2017-09-22T17:36:29.728Z,14.60
2017-09-22T17:38:58.000Z,14.40
2017-09-22T17:41:26.289Z,14.30
2017-09-22T17:43:54.556Z,14.10
2017-09-22T17:46:22.848Z,14.00
2017-09-22T17:48:51.876Z,13.70
2017-09-22T17:51:20.165Z,13.60
2017-09-22T17:53:48.436Z,13.60
2017-09-22T17:56:16.868Z,13.50
2017-09-22T17:58:45.128Z,13.40
2017-09-22T18:01:13.436Z,13.20
2017-09-22T18:03:41.764Z,13.20
2017-09-22T18:06:10.027Z,13.10
2017-09-22T18:08:38.316Z,13.00
2017-09-22T18:11:07.368Z,12.80
2017-09-22T18:13:35.648Z,12.80
2017-09-22T18:16:04.229Z,12.90
2017-09-22T18:18:33.299Z,12.90
2017-09-22T18:21:01.570Z,12.80
2017-09-22T18:23:30.607Z,12.80
2017-09-22T18:25:58.880Z,12.70
2017-09-22T18:28:28.559Z,12.60
2017-09-22T18:30:56.844Z,12.60
2017-09-22T18:33:25.115Z,12.50
2017-09-22T18:35:53.429Z,12.40
2017-09-22T18:38:22.918Z,12.30
2017-09-22T18:40:51.260Z,12.30
2017-09-22T18:43:19.534Z,12.20
2017-09-22T18:45:47.839Z,12.20
2017-09-22T18:48:20.760Z,12.10
2017-09-22T18:50:49.084Z,12.10
2017-09-22T18:53:18.144Z,12.00
2017-09-22T18:55:47.868Z,12.00
2017-09-22T18:58:18.945Z,11.90
2017-09-22T19:00:47.212Z,11.90
2017-09-22T19:03:15.713Z,11.90
2017-09-22T19:05:44.937Z,11.80
2017-09-22T19:08:16.765Z,11.70
2017-09-22T19:10:45.802Z,11.70
2017-09-22T19:13:14.080Z,11.70
2017-09-22T19:15:43.129Z,11.70
2017-09-22T19:18:11.455Z,11.60
2017-09-22T19:20:39.733Z,11.70
2017-09-22T19:23:08.208Z,11.60
2017-09-22T19:25:38.367Z,11.50
2017-09-22T19:28:07.773Z,11.50
2017-09-22T19:30:36.816Z,11.40
2017-09-22T19:33:05.092Z,11.40
2017-09-22T19:35:34.141Z,11.50
2017-09-22T19:38:02.424Z,11.40
2017-09-22T19:40:30.989Z,11.50
2017-09-22T19:42:59.561Z,11.50
2017-09-22T19:45:27.868Z,11.50
2017-09-22T19:47:56.150Z,11.50
2017-09-22T19:50:24.456Z,11.60
2017-09-22T19:52:52.743Z,11.70
2017-09-22T19:55:21.017Z,11.80
2017-09-22T19:57:49.283Z,11.80
2017-09-22T20:00:17.571Z,11.90
2017-09-22T20:02:45.839Z,12.00
2017-09-22T20:05:14.148Z,12.10
2017-09-22T20:07:42.424Z,12.10
2017-09-22T20:10:10.711Z,12.00
2017-09-22T20:12:39.038Z,12.10
2017-09-22T20:15:07.413Z,12.10
2017-09-22T20:17:35.686Z,12.10
2017-09-22T20:20:03.947Z,12.00
2017-09-22T20:22:32.246Z,12.00
2017-09-22T20:25:00.507Z,11.90
2017-09-22T20:27:28.802Z,11.80
2017-09-22T20:29:57.844Z,12.00
2017-09-22T20:32:26.136Z,11.90
2017-09-22T20:34:54.403Z,11.90
2017-09-22T20:37:22.889Z,11.70
2017-09-22T20:39:51.161Z,11.60
2017-09-22T20:42:19.424Z,11.60
2017-09-22T20:44:47.733Z,11.60
2017-09-22T20:47:16.000Z,11.60
2017-09-22T20:49:45.075Z,11.80
2017-09-22T20:52:13.341Z,11.70
2017-09-22T20:54:41.628Z,11.70
2017-09-22T20:57:10.023Z,11.70
2017-09-22T20:59:38.386Z,11.60
2017-09-22T21:02:06.645Z,11.60
2017-09-22T21:04:34.944Z,11.70
2017-09-22T21:07:03.236Z,11.80
2017-09-22T21:09:31.514Z,11.80
2017-09-22T21:11:59.800Z,11.70
2017-09-22T21:14:28.848Z,11.60
2017-09-22T21:16:57.136Z,11.60
2017-09-22T21:19:26.175Z,11.60
2017-09-22T21:21:54.452Z,11.60
2017-09-22T21:24:22.733Z,11.50
2017-09-22T21:26:51.880Z,11.40
2017-09-22T21:29:20.148Z,11.30
2017-09-22T21:31:48.421Z,11.40
2017-09-22T21:34:16.736Z,11.50
2017-09-22T21:36:46.025Z,11.40
2017-09-22T21:39:14.315Z,11.40
2017-09-22T21:41:42.585Z,11.40
2017-09-22T21:44:10.892Z,11.30
2017-09-22T21:46:39.160Z,11.30
2017-09-22T21:49:07.440Z,11.20
2017-09-22T21:51:35.788Z,11.20
2017-09-22T21:54:04.064Z,11.20
2017-09-22T21:56:32.699Z,11.10
2017-09-22T21:59:01.729Z,11.00
2017-09-22T22:01:30.031Z,11.00
2017-09-22T22:04:03.884Z,11.00
2017-09-22T22:06:37.868Z,10.90
2017-09-22T22:09:06.141Z,11.00
2017-09-22T22:11:34.495Z,10.90
2017-09-22T22:14:02.808Z,10.90
2017-09-22T22:16:31.847Z,10.80
2017-09-22T22:19:00.128Z,10.70
2017-09-22T22:21:29.164Z,10.70
2017-09-22T22:23:57.451Z,10.60
2017-09-22T22:26:25.716Z,10.60
2017-09-22T22:28:54.032Z,10.60
2017-09-22T22:31:22.310Z,10.50
2017-09-22T22:33:50.571Z,10.50
2017-09-22T22:36:25.832Z,10.50
2017-09-22T22:38:54.112Z,10.40
2017-09-22T22:41:23.160Z,10.40
2017-09-22T22:43:51.462Z,10.30
2017-09-22T22:46:20.840Z,10.20
2017-09-22T22:48:49.888Z,10.20
2017-09-22T22:51:18.148Z,10.20
2017-09-22T22:53:46.440Z,10.20
2017-09-22T22:56:15.477Z,10.30
2017-09-22T22:58:43.768Z,10.20
2017-09-22T23:01:12.809Z,10.30
2017-09-22T23:03:41.092Z,10.30
2017-09-22T23:06:09.364Z,10.30
2017-09-22T23:08:37.665Z,10.40
2017-09-22T23:11:05.944Z,10.40
2017-09-22T23:13:34.216Z,10.40
2017-09-22T23:16:02.504Z,10.40
2017-09-22T23:18:30.780Z,10.40
2017-09-22T23:20:59.055Z,10.30
2017-09-22T23:23:28.092Z,10.30
2017-09-22T23:25:56.379Z,10.20
2017-09-22T23:28:24.656Z,10.20
2017-09-22T23:30:53.769Z,10.10
2017-09-22T23:33:22.064Z,10.00
2017-09-22T23:35:50.339Z,10.00
2017-09-22T23:38:18.627Z,10.00
2017-09-22T23:40:47.671Z,9.90
2017-09-22T23:43:16.195Z,9.80
2017-09-22T23:45:44.463Z,9.80
2017-09-22T23:48:12.724Z,9.80
2017-09-22T23:50:41.004Z,9.80
2017-09-22T23:53:09.304Z,9.80
2017-09-22T23:55:38.503Z,9.80
2017-09-22T23:58:07.532Z,9.70
